sensor_id;sensor_type;location;lat;lon;timestamp;pressure;altitude;pressure_sealevel;temperature;humidity
60427;BME280;46274;47.168;27.604;2023-04-28T00:05:51;100274.28;;;6.40;62.54
60427;BME280;46274;47.168;27.604;2023-04-28T00:11:55;100249.66;;;6.25;62.09
60427;BME280;46274;47.168;27.604;2023-04-28T00:17:57;100282.06;;;6.43;62.28
60427;BME280;46274;47.168;27.604;2023-04-28T00:24:00;100285.31;;;6.37;62.27
60427;BME280;46274;47.168;27.604;2023-04-28T00:30:03;100283.03;;;6.42;62.15
60427;BME280;46274;47.168;27.604;2023-04-28T00:36:12;100288.72;;;6.39;62.51
60427;BME280;46274;47.168;27.604;2023-04-28T00:42:17;100301.31;;;6.39;62.58
60427;BME280;46274;47.168;27.604;2023-04-28T00:48:32;100298.34;;;6.42;62.70
60427;BME280;46274;47.168;27.604;2023-04-28T00:54:39;100267.66;;;6.25;62.46
60427;BME280;46274;47.168;27.604;2023-04-28T01:00:44;100264.97;;;6.25;62.89
60427;BME280;46274;47.168;27.604;2023-04-28T01:06:50;100315.34;;;6.42;63.12
60427;BME280;46274;47.168;27.604;2023-04-28T01:12:54;100315.63;;;6.49;62.77
60427;BME280;46274;47.168;27.604;2023-04-28T01:18:59;100307.13;;;6.53;62.63
60427;BME280;46274;47.168;27.604;2023-04-28T01:25:11;100291.81;;;6.44;62.83
60427;BME280;46274;47.168;27.604;2023-04-28T01:31:14;100307.69;;;6.47;63.32
60427;BME280;46274;47.168;27.604;2023-04-28T01:37:31;100212.72;;;5.98;63.22
60427;BME280;46274;47.168;27.604;2023-04-28T01:43:40;100306.25;;;6.53;63.12
60427;BME280;46274;47.168;27.604;2023-04-28T01:49:47;100293.91;;;6.50;63.16
60427;BME280;46274;47.168;27.604;2023-04-28T01:55:52;100294.94;;;6.49;63.46
60427;BME280;46274;47.168;27.604;2023-04-28T02:01:58;100295.22;;;6.37;63.59
60427;BME280;46274;47.168;27.604;2023-04-28T02:08:00;100307.69;;;6.47;63.78
60427;BME280;46274;47.168;27.604;2023-04-28T02:14:06;100309.41;;;6.48;63.59
60427;BME280;46274;47.168;27.604;2023-04-28T02:20:11;100315.75;;;6.47;63.56
60427;BME280;46274;47.168;27.604;2023-04-28T02:26:21;100321.31;;;6.46;63.47
60427;BME280;46274;47.168;27.604;2023-04-28T02:32:24;100322.72;;;6.40;63.70
60427;BME280;46274;47.168;27.604;2023-04-28T02:38:28;100268.38;;;5.98;63.90
60427;BME280;46274;47.168;27.604;2023-04-28T02:44:31;100226.72;;;5.73;63.81
60427;BME280;46274;47.168;27.604;2023-04-28T02:50:35;100287.19;;;6.07;64.08
60427;BME280;46274;47.168;27.604;2023-04-28T02:56:41;100215.38;;;5.50;64.24
60427;BME280;46274;47.168;27.604;2023-04-28T03:02:51;100307.69;;;5.89;63.96
60427;BME280;46274;47.168;27.604;2023-04-28T03:08:57;100096.38;;;4.50;64.51
60427;BME280;46274;47.168;27.604;2023-04-28T03:15:16;100364.00;;;5.90;64.85
60427;BME280;46274;47.168;27.604;2023-04-28T03:21:22;100103.66;;;4.08;64.88
60427;BME280;46274;47.168;27.604;2023-04-28T03:27:25;100379.53;;;5.67;65.21
60427;BME280;46274;47.168;27.604;2023-04-28T03:33:28;100377.41;;;5.61;65.09
60427;BME280;46274;47.168;27.604;2023-04-28T03:39:31;100370.81;;;5.44;65.17
60427;BME280;46274;47.168;27.604;2023-04-28T03:45:36;100397.66;;;5.65;65.20
60427;BME280;46274;47.168;27.604;2023-04-28T03:51:41;100387.38;;;5.50;65.45
60427;BME280;46274;47.168;27.604;2023-04-28T03:57:43;100402.78;;;5.38;66.15
60427;BME280;46274;47.168;27.604;2023-04-28T04:03:46;100402.63;;;5.39;65.78
60427;BME280;46274;47.168;27.604;2023-04-28T04:09:51;100359.84;;;5.27;65.98
60427;BME280;46274;47.168;27.604;2023-04-28T04:16:02;100384.28;;;5.54;65.85
60427;BME280;46274;47.168;27.604;2023-04-28T04:22:05;100408.50;;;5.95;65.07
60427;BME280;46274;47.168;27.604;2023-04-28T04:28:10;100414.19;;;6.21;64.86
60427;BME280;46274;47.168;27.604;2023-04-28T04:34:17;100417.63;;;6.62;64.11
60427;BME280;46274;47.168;27.604;2023-04-28T04:40:22;100423.69;;;6.83;63.61
60427;BME280;46274;47.168;27.604;2023-04-28T04:46:25;100400.28;;;6.93;63.12
60427;BME280;46274;47.168;27.604;2023-04-28T04:52:30;100166.03;;;5.99;62.27
60427;BME280;46274;47.168;27.604;2023-04-28T04:58:33;100433.16;;;7.81;60.46
60427;BME280;46274;47.168;27.604;2023-04-28T05:04:40;100409.25;;;7.96;60.11
60427;BME280;46274;47.168;27.604;2023-04-28T05:10:44;100442.53;;;8.33;59.86
60427;BME280;46274;47.168;27.604;2023-04-28T05:16:48;100257.91;;;7.54;59.31
60427;BME280;46274;47.168;27.604;2023-04-28T05:22:50;100293.06;;;7.98;58.43
60427;BME280;46274;47.168;27.604;2023-04-28T05:29:00;100397.13;;;8.90;58.01
60427;BME280;46274;47.168;27.604;2023-04-28T05:35:03;100390.09;;;8.53;56.25
60427;BME280;46274;47.168;27.604;2023-04-28T05:41:07;100448.59;;;9.50;57.99
60427;BME280;46274;47.168;27.604;2023-04-28T05:47:16;100348.63;;;9.06;56.18
60427;BME280;46274;47.168;27.604;2023-04-28T05:53:47;100452.47;;;9.82;56.86
60427;BME280;46274;47.168;27.604;2023-04-28T05:59:50;100369.22;;;9.07;56.40
60427;BME280;46274;47.168;27.604;2023-04-28T06:05:52;100385.63;;;9.74;56.16
60427;BME280;46274;47.168;27.604;2023-04-28T06:11:55;100344.09;;;9.49;56.05
60427;BME280;46274;47.168;27.604;2023-04-28T06:17:59;100445.66;;;10.20;55.28
60427;BME280;46274;47.168;27.604;2023-04-28T06:24:13;100471.00;;;10.54;55.33
60427;BME280;46274;47.168;27.604;2023-04-28T06:30:17;100466.97;;;10.90;54.51
60427;BME280;46274;47.168;27.604;2023-04-28T06:36:24;100479.44;;;10.00;52.23
60427;BME280;46274;47.168;27.604;2023-04-28T06:42:34;100275.28;;;9.44;52.98
60427;BME280;46274;47.168;27.604;2023-04-28T06:48:37;100475.78;;;11.01;52.81
60427;BME280;46274;47.168;27.604;2023-04-28T06:54:47;100479.59;;;10.41;52.77
60427;BME280;46274;47.168;27.604;2023-04-28T07:00:53;100436.00;;;10.18;51.94
60427;BME280;46274;47.168;27.604;2023-04-28T07:06:57;100473.25;;;10.83;52.73
60427;BME280;46274;47.168;27.604;2023-04-28T07:13:04;100463.22;;;10.75;50.70
60427;BME280;46274;47.168;27.604;2023-04-28T07:19:08;100453.41;;;10.99;51.93
60427;BME280;46274;47.168;27.604;2023-04-28T07:25:22;100471.41;;;11.00;50.49
60427;BME280;46274;47.168;27.604;2023-04-28T07:31:33;100443.88;;;11.44;49.67
60427;BME280;46274;47.168;27.604;2023-04-28T07:37:38;100438.53;;;11.75;48.12
60427;BME280;46274;47.168;27.604;2023-04-28T07:43:41;100328.34;;;9.95;50.37
60427;BME280;46274;47.168;27.604;2023-04-28T07:49:44;100486.44;;;11.27;47.98
60427;BME280;46274;47.168;27.604;2023-04-28T07:55:50;100486.59;;;10.68;47.91
60427;BME280;46274;47.168;27.604;2023-04-28T08:01:53;100482.03;;;11.18;48.53
60427;BME280;46274;47.168;27.604;2023-04-28T08:07:58;100333.41;;;9.98;48.63
60427;BME280;46274;47.168;27.604;2023-04-28T08:14:05;100495.00;;;11.79;48.68
60427;BME280;46274;47.168;27.604;2023-04-28T08:20:12;100401.84;;;11.31;46.04
60427;BME280;46274;47.168;27.604;2023-04-28T08:26:17;100463.44;;;11.87;47.18
60427;BME280;46274;47.168;27.604;2023-04-28T08:32:28;100464.31;;;12.81;46.43
60427;BME280;46274;47.168;27.604;2023-04-28T08:38:47;100454.88;;;11.50;44.43
60427;BME280;46274;47.168;27.604;2023-04-28T08:44:52;100445.44;;;11.94;47.23
60427;BME280;46274;47.168;27.604;2023-04-28T08:51:05;100431.53;;;11.81;45.79
60427;BME280;46274;47.168;27.604;2023-04-28T08:57:18;100469.97;;;11.53;44.99
60427;BME280;46274;47.168;27.604;2023-04-28T09:03:25;100376.69;;;11.46;45.03
60427;BME280;46274;47.168;27.604;2023-04-28T09:09:29;100465.25;;;11.22;45.94
60427;BME280;46274;47.168;27.604;2023-04-28T09:15:40;100455.63;;;11.84;44.90
60427;BME280;46274;47.168;27.604;2023-04-28T09:21:55;100443.97;;;12.14;44.92
60427;BME280;46274;47.168;27.604;2023-04-28T09:28:20;100398.91;;;11.49;44.74
60427;BME280;46274;47.168;27.604;2023-04-28T09:41:00;100449.91;;;11.70;44.78
60427;BME280;46274;47.168;27.604;2023-04-28T09:47:20;100428.66;;;11.10;46.57
60427;BME280;46274;47.168;27.604;2023-04-28T09:53:32;100447.53;;;12.15;45.25
60427;BME280;46274;47.168;27.604;2023-04-28T09:59:36;100447.78;;;11.97;45.64
60427;BME280;46274;47.168;27.604;2023-04-28T10:05:50;100437.69;;;12.45;46.46
60427;BME280;46274;47.168;27.604;2023-04-28T10:11:57;100435.84;;;11.58;45.10
60427;BME280;46274;47.168;27.604;2023-04-28T10:18:16;100430.97;;;11.46;45.06
60427;BME280;46274;47.168;27.604;2023-04-28T10:24:28;100445.59;;;11.12;45.32
60427;BME280;46274;47.168;27.604;2023-04-28T10:30:34;100338.56;;;10.67;47.01
60427;BME280;46274;47.168;27.604;2023-04-28T10:42:54;100215.94;;;10.65;45.50
60427;BME280;46274;47.168;27.604;2023-04-28T10:48:57;100427.50;;;12.47;45.40
60427;BME280;46274;47.168;27.604;2023-04-28T11:01:31;100296.03;;;12.25;44.89
60427;BME280;46274;47.168;27.604;2023-04-28T11:07:37;100401.75;;;12.81;45.36
60427;BME280;46274;47.168;27.604;2023-04-28T11:13:41;100386.31;;;12.96;45.50
60427;BME280;46274;47.168;27.604;2023-04-28T11:19:47;100401.16;;;11.93;43.88
60427;BME280;46274;47.168;27.604;2023-04-28T11:25:56;100398.41;;;11.46;44.61
60427;BME280;46274;47.168;27.604;2023-04-28T11:31:59;100401.03;;;12.41;45.49
60427;BME280;46274;47.168;27.604;2023-04-28T11:38:05;100401.00;;;11.87;44.35
60427;BME280;46274;47.168;27.604;2023-04-28T11:44:19;100373.75;;;11.64;44.14
60427;BME280;46274;47.168;27.604;2023-04-28T11:50:36;100366.22;;;13.35;44.67
60427;BME280;46274;47.168;27.604;2023-04-28T11:56:45;100150.69;;;11.14;43.47
60427;BME280;46274;47.168;27.604;2023-04-28T12:02:48;100375.44;;;12.35;42.54
60427;BME280;46274;47.168;27.604;2023-04-28T12:08:52;100377.28;;;12.12;44.44
60427;BME280;46274;47.168;27.604;2023-04-28T12:14:56;100373.59;;;12.74;44.61
60427;BME280;46274;47.168;27.604;2023-04-28T12:21:00;100316.31;;;12.14;44.41
60427;BME280;46274;47.168;27.604;2023-04-28T12:27:19;100268.50;;;12.05;42.35
60427;BME280;46274;47.168;27.604;2023-04-28T12:33:31;100213.25;;;11.98;41.83
60427;BME280;46274;47.168;27.604;2023-04-28T12:39:49;100231.66;;;12.78;40.33
60427;BME280;46274;47.168;27.604;2023-04-28T12:46:02;100296.72;;;14.48;40.21
60427;BME280;46274;47.168;27.604;2023-04-28T12:52:19;100190.56;;;11.37;42.09
60427;BME280;46274;47.168;27.604;2023-04-28T12:58:22;100325.78;;;13.32;41.41
60427;BME280;46274;47.168;27.604;2023-04-28T13:04:32;100289.53;;;13.46;41.25
60427;BME280;46274;47.168;27.604;2023-04-28T13:10:39;100312.19;;;13.32;38.24
60427;BME280;46274;47.168;27.604;2023-04-28T13:16:44;100309.59;;;13.16;40.29
60427;BME280;46274;47.168;27.604;2023-04-28T13:22:49;100282.41;;;13.45;39.90
60427;BME280;46274;47.168;27.604;2023-04-28T13:28:57;100305.31;;;13.36;40.16
60427;BME280;46274;47.168;27.604;2023-04-28T13:35:01;100292.41;;;14.39;40.13
60427;BME280;46274;47.168;27.604;2023-04-28T13:41:15;100294.44;;;14.09;39.45
60427;BME280;46274;47.168;27.604;2023-04-28T13:47:45;100298.91;;;13.44;38.71
60427;BME280;46274;47.168;27.604;2023-04-28T13:53:50;100251.50;;;13.89;38.84
60427;BME280;46274;47.168;27.604;2023-04-28T13:59:54;100278.66;;;13.83;38.21
60427;BME280;46274;47.168;27.604;2023-04-28T14:06:05;100174.19;;;12.96;37.74
60427;BME280;46274;47.168;27.604;2023-04-28T14:12:38;100246.66;;;13.70;37.33
60427;BME280;46274;47.168;27.604;2023-04-28T14:18:47;100266.25;;;13.59;35.10
60427;BME280;46274;47.168;27.604;2023-04-28T14:24:50;100272.66;;;13.36;38.01
60427;BME280;46274;47.168;27.604;2023-04-28T14:31:13;100254.91;;;12.96;38.45
60427;BME280;46274;47.168;27.604;2023-04-28T14:37:18;100237.25;;;12.62;37.77
60427;BME280;46274;47.168;27.604;2023-04-28T14:43:33;100217.31;;;13.14;38.49
60427;BME280;46274;47.168;27.604;2023-04-28T14:49:49;100266.72;;;13.18;38.42
60427;BME280;46274;47.168;27.604;2023-04-28T14:55:58;100249.78;;;12.86;36.64
60427;BME280;46274;47.168;27.604;2023-04-28T15:02:21;100206.75;;;13.26;37.29
60427;BME280;46274;47.168;27.604;2023-04-28T15:08:31;100251.75;;;13.94;37.66
60427;BME280;46274;47.168;27.604;2023-04-28T15:14:40;100257.94;;;12.86;38.51
60427;BME280;46274;47.168;27.604;2023-04-28T15:20:51;100252.94;;;12.75;39.63
60427;BME280;46274;47.168;27.604;2023-04-28T15:27:00;100245.91;;;13.10;39.25
60427;BME280;46274;47.168;27.604;2023-04-28T15:33:10;100233.59;;;12.40;38.00
60427;BME280;46274;47.168;27.604;2023-04-28T15:39:19;100065.50;;;11.08;37.91
60427;BME280;46274;47.168;27.604;2023-04-28T15:45:41;100224.34;;;12.26;38.54
60427;BME280;46274;47.168;27.604;2023-04-28T15:51:45;100099.19;;;11.37;37.48
60427;BME280;46274;47.168;27.604;2023-04-28T15:57:48;100246.84;;;12.20;39.51
60427;BME280;46274;47.168;27.604;2023-04-28T16:04:03;100121.16;;;11.19;38.63
60427;BME280;46274;47.168;27.604;2023-04-28T16:10:18;100204.88;;;11.76;39.03
60427;BME280;46274;47.168;27.604;2023-04-28T16:16:20;100233.75;;;11.77;39.65
60427;BME280;46274;47.168;27.604;2023-04-28T16:22:30;100091.84;;;10.91;40.64
60427;BME280;46274;47.168;27.604;2023-04-28T16:28:33;100128.47;;;11.19;40.36
60427;BME280;46274;47.168;27.604;2023-04-28T16:34:36;100225.16;;;11.34;41.60
60427;BME280;46274;47.168;27.604;2023-04-28T16:40:38;100226.59;;;11.22;41.25
60427;BME280;46274;47.168;27.604;2023-04-28T16:46:43;100002.25;;;9.75;41.83
60427;BME280;46274;47.168;27.604;2023-04-28T16:52:48;100157.91;;;10.59;41.97
60427;BME280;46274;47.168;27.604;2023-04-28T16:58:51;100252.66;;;10.84;42.77
60427;BME280;46274;47.168;27.604;2023-04-28T17:04:56;100250.75;;;11.01;43.18
60427;BME280;46274;47.168;27.604;2023-04-28T17:11:00;100243.44;;;10.37;44.25
60427;BME280;46274;47.168;27.604;2023-04-28T17:17:04;100260.34;;;10.15;45.00
60427;BME280;46274;47.168;27.604;2023-04-28T17:23:07;100253.72;;;9.93;45.86
60427;BME280;46274;47.168;27.604;2023-04-28T17:29:14;100224.44;;;9.72;45.29
60427;BME280;46274;47.168;27.604;2023-04-28T17:35:19;100258.66;;;10.05;45.28
60427;BME280;46274;47.168;27.604;2023-04-28T17:41:21;100266.22;;;9.86;45.49
60427;BME280;46274;47.168;27.604;2023-04-28T17:47:24;100200.69;;;9.16;46.17
60427;BME280;46274;47.168;27.604;2023-04-28T17:53:28;100279.16;;;9.49;46.87
60427;BME280;46274;47.168;27.604;2023-04-28T17:59:30;100275.66;;;9.57;47.02
60427;BME280;46274;47.168;27.604;2023-04-28T18:05:36;100291.00;;;9.48;46.93
60427;BME280;46274;47.168;27.604;2023-04-28T18:11:59;100286.19;;;9.26;46.60
60427;BME280;46274;47.168;27.604;2023-04-28T18:18:04;100270.50;;;8.95;47.79
60427;BME280;46274;47.168;27.604;2023-04-28T18:24:06;100309.63;;;9.09;47.76
60427;BME280;46274;47.168;27.604;2023-04-28T18:30:09;100299.09;;;9.06;48.06
60427;BME280;46274;47.168;27.604;2023-04-28T18:36:12;100308.75;;;9.08;48.67
60427;BME280;46274;47.168;27.604;2023-04-28T18:42:15;100275.78;;;8.70;48.85
60427;BME280;46274;47.168;27.604;2023-04-28T18:48:18;100230.81;;;8.95;47.96
60427;BME280;46274;47.168;27.604;2023-04-28T18:54:21;100297.19;;;8.98;49.19
60427;BME280;46274;47.168;27.604;2023-04-28T19:00:24;100323.13;;;8.83;50.20
60427;BME280;46274;47.168;27.604;2023-04-28T19:06:26;100324.13;;;8.82;50.02
60427;BME280;46274;47.168;27.604;2023-04-28T19:12:28;100285.81;;;7.98;51.16
60427;BME280;46274;47.168;27.604;2023-04-28T19:18:31;100285.31;;;8.21;50.83
60427;BME280;46274;47.168;27.604;2023-04-28T19:24:36;100227.72;;;7.68;51.83
60427;BME280;46274;47.168;27.604;2023-04-28T19:30:40;100318.28;;;8.24;51.81
60427;BME280;46274;47.168;27.604;2023-04-28T19:36:42;100302.09;;;7.89;52.58
60427;BME280;46274;47.168;27.604;2023-04-28T19:42:47;100294.91;;;7.79;52.72
60427;BME280;46274;47.168;27.604;2023-04-28T19:48:49;100324.13;;;8.02;52.35
60427;BME280;46274;47.168;27.604;2023-04-28T19:54:52;100292.31;;;7.88;52.32
60427;BME280;46274;47.168;27.604;2023-04-28T20:00:54;100264.56;;;7.77;52.66
60427;BME280;46274;47.168;27.604;2023-04-28T20:06:57;100272.19;;;7.36;54.66
60427;BME280;46274;47.168;27.604;2023-04-28T20:12:59;100321.91;;;7.52;54.00
60427;BME280;46274;47.168;27.604;2023-04-28T20:19:03;100282.81;;;5.37;61.09
60427;BME280;46274;47.168;27.604;2023-04-28T20:25:06;100310.16;;;6.78;56.77
60427;BME280;46274;47.168;27.604;2023-04-28T20:31:12;100296.59;;;6.70;55.84
60427;BME280;46274;47.168;27.604;2023-04-28T20:37:15;100195.31;;;5.44;58.62
60427;BME280;46274;47.168;27.604;2023-04-28T20:43:19;100298.53;;;6.87;55.39
60427;BME280;46274;47.168;27.604;2023-04-28T20:49:22;100282.63;;;6.37;56.20
60427;BME280;46274;47.168;27.604;2023-04-28T20:55:26;100331.47;;;6.71;56.20
60427;BME280;46274;47.168;27.604;2023-04-28T21:01:29;100303.31;;;6.37;56.52
60427;BME280;46274;47.168;27.604;2023-04-28T21:07:31;100163.06;;;5.73;55.73
60427;BME280;46274;47.168;27.604;2023-04-28T21:13:34;100337.28;;;6.67;55.73
60427;BME280;46274;47.168;27.604;2023-04-28T21:19:36;100337.97;;;6.69;55.73
60427;BME280;46274;47.168;27.604;2023-04-28T21:25:39;100332.75;;;6.48;56.18
60427;BME280;46274;47.168;27.604;2023-04-28T21:31:41;100337.44;;;6.36;56.09
60427;BME280;46274;47.168;27.604;2023-04-28T21:37:44;100313.66;;;6.22;56.10
60427;BME280;46274;47.168;27.604;2023-04-28T21:43:46;100289.75;;;5.30;59.36
60427;BME280;46274;47.168;27.604;2023-04-28T21:49:49;100323.94;;;5.78;58.43
60427;BME280;46274;47.168;27.604;2023-04-28T21:55:51;100320.69;;;5.74;58.80
60427;BME280;46274;47.168;27.604;2023-04-28T22:01:54;100315.91;;;4.66;63.96
60427;BME280;46274;47.168;27.604;2023-04-28T22:07:59;100309.28;;;5.41;60.62
60427;BME280;46274;47.168;27.604;2023-04-28T22:14:02;100260.25;;;4.99;60.97
60427;BME280;46274;47.168;27.604;2023-04-28T22:20:06;100166.69;;;3.92;61.66
60427;BME280;46274;47.168;27.604;2023-04-28T22:26:09;100305.81;;;5.10;60.25
60427;BME280;46274;47.168;27.604;2023-04-28T22:32:11;100269.00;;;4.40;62.50
60427;BME280;46274;47.168;27.604;2023-04-28T22:38:14;100275.56;;;4.77;60.87
60427;BME280;46274;47.168;27.604;2023-04-28T22:44:16;100272.25;;;4.64;61.21
60427;BME280;46274;47.168;27.604;2023-04-28T22:50:19;100296.69;;;4.40;62.90
60427;BME280;46274;47.168;27.604;2023-04-28T22:56:21;100255.53;;;4.30;62.58
60427;BME280;46274;47.168;27.604;2023-04-28T23:02:24;100263.72;;;4.49;61.56
60427;BME280;46274;47.168;27.604;2023-04-28T23:08:26;100151.22;;;3.64;62.84
60427;BME280;46274;47.168;27.604;2023-04-28T23:14:29;100139.28;;;1.81;70.74
60427;BME280;46274;47.168;27.604;2023-04-28T23:20:32;100281.25;;;3.79;65.74
60427;BME280;46274;47.168;27.604;2023-04-28T23:26:34;100289.69;;;2.52;72.02
60427;BME280;46274;47.168;27.604;2023-04-28T23:32:39;100247.34;;;3.89;64.04
60427;BME280;46274;47.168;27.604;2023-04-28T23:38:42;100281.13;;;3.37;66.43
60427;BME280;46274;47.168;27.604;2023-04-28T23:44:45;100254.63;;;3.66;64.21
60427;BME280;46274;47.168;27.604;2023-04-28T23:50:47;100178.06;;;2.77;66.59
60427;BME280;46274;47.168;27.604;2023-04-28T23:56:51;100178.47;;;2.27;68.17
